Time;durP1;ratioP1;P1;durP2;ratioP2;P2;SDS_P1;SDS_P2;PMS_P1;PMS_P2;Temp;Humidity;BMP_temperature;BMP_pressure;BME280_temperature;BME280_humidity;BME280_pressure;Samples;Min_cycle;Max_cycle;Signal;HPM_P1;HPM_P2
2022/12/16 00:01:10;;;;;;;;;0.50;0.50;;;;;1.71;81.37;101012.69;5070152;28;11484;-66
2022/12/16 00:03:37;;;;;;;;;0.25;0.25;;;;;1.72;81.11;101006.41;5057957;28;12262;-67
2022/12/16 00:06:07;;;;;;;;;0.00;0.00;;;;;1.73;80.88;101016.03;5052201;28;11480;-68
2022/12/16 00:08:36;;;;;;;;;1.00;0.00;;;;;1.72;80.89;101017.84;5062023;28;12843;-65
2022/12/16 00:11:03;;;;;;;;;0.00;0.00;;;;;1.70;81.10;101019.81;5052413;28;11520;-67
2022/12/16 00:13:32;;;;;;;;;0.00;0.00;;;;;1.70;81.11;101011.84;5061798;28;11662;-67
2022/12/16 00:16:04;;;;;;;;;0.00;0.00;;;;;1.71;81.17;101015.34;5068652;28;11452;-67
2022/12/16 00:18:31;;;;;;;;;0.25;0.25;;;;;1.72;81.20;101014.34;5062984;28;11623;-67
2022/12/16 00:20:57;;;;;;;;;0.00;0.00;;;;;1.72;81.37;101007.22;5058838;28;11654;-67
2022/12/16 00:23:24;;;;;;;;;0.00;0.00;;;;;1.77;81.50;101008.66;5059652;28;11428;-67
2022/12/16 00:25:50;;;;;;;;;0.25;0.25;;;;;1.78;81.22;101011.16;5053491;28;11531;-67
2022/12/16 00:28:21;;;;;;;;;1.50;1.50;;;;;1.77;81.38;101014.78;5051166;28;11636;-66
2022/12/16 00:30:49;;;;;;;;;1.00;1.00;;;;;1.79;81.34;101012.84;5076094;28;11624;-66
2022/12/16 00:33:19;;;;;;;;;1.00;0.00;;;;;1.82;81.58;101017.03;5068678;28;11498;-65
2022/12/16 00:35:46;;;;;;;;;0.75;0.75;;;;;1.85;81.37;101012.31;5061167;28;12141;-65
2022/12/16 00:38:14;;;;;;;;;0.50;0.50;;;;;1.84;81.01;101018.59;5059050;28;11573;-66
2022/12/16 00:40:40;;;;;;;;;0.50;0.50;;;;;1.81;81.05;101018.84;5048659;28;11541;-66
2022/12/16 00:43:07;;;;;;;;;4.25;2.25;;;;;1.79;81.00;101015.50;5064638;28;11569;-66
2022/12/16 00:45:33;;;;;;;;;1.00;1.00;;;;;1.78;81.13;101016.47;5063860;28;11517;-66
2022/12/16 00:48:00;;;;;;;;;1.00;1.00;;;;;1.77;81.26;101020.09;5064360;28;11444;-65
2022/12/16 00:50:27;;;;;;;;;1.50;1.00;;;;;1.75;81.17;101022.06;5060736;28;11528;-66
2022/12/16 00:52:53;;;;;;;;;1.00;1.00;;;;;1.70;81.29;101030.44;5061988;28;11508;-66
2022/12/16 00:55:20;;;;;;;;;3.00;1.75;;;;;1.70;81.33;101040.16;5053291;28;11470;-65
2022/12/16 00:57:46;;;;;;;;;0.75;0.75;;;;;1.61;81.10;101038.31;5061731;28;11503;-68
2022/12/16 01:00:15;;;;;;;;;1.50;0.50;;;;;1.64;81.34;101035.41;5057333;28;11632;-66
2022/12/16 01:02:44;;;;;;;;;1.25;1.00;;;;;1.66;81.46;101036.97;5067198;28;11444;-66
2022/12/16 01:05:13;;;;;;;;;1.00;1.00;;;;;1.66;81.25;101039.63;5068930;28;11578;-66
2022/12/16 01:07:40;;;;;;;;;0.75;0.75;;;;;1.64;81.32;101048.66;5061386;28;11514;-66
2022/12/16 01:10:08;;;;;;;;;3.00;1.00;;;;;1.56;81.18;101041.38;5049369;28;11542;-65
2022/12/16 01:12:35;;;;;;;;;0.00;0.00;;;;;1.60;80.91;101042.78;5056540;28;11498;-66
2022/12/16 01:15:04;;;;;;;;;0.50;0.50;;;;;1.59;80.93;101042.94;5059976;28;11520;-69
2022/12/16 01:17:30;;;;;;;;;0.00;0.00;;;;;1.61;81.18;101059.53;5050007;28;11540;-66
2022/12/16 01:19:57;;;;;;;;;0.00;0.00;;;;;1.59;80.93;101057.03;5063634;28;11573;-67
2022/12/16 01:22:23;;;;;;;;;0.00;0.00;;;;;1.56;80.55;101059.09;5051241;28;11519;-67
2022/12/16 01:24:50;;;;;;;;;1.00;0.00;;;;;1.59;80.54;101067.66;5050297;28;11535;-67
2022/12/16 01:27:16;;;;;;;;;2.00;0.75;;;;;1.62;80.17;101066.53;5069815;28;11522;-65
2022/12/16 01:29:43;;;;;;;;;0.50;0.50;;;;;1.62;79.95;101070.03;5064215;28;11559;-66
2022/12/16 01:32:12;;;;;;;;;1.00;1.00;;;;;1.60;79.92;101076.44;5052928;28;11543;-66
2022/12/16 01:34:39;;;;;;;;;1.00;1.00;;;;;1.58;79.63;101083.66;5065006;28;11484;-66
2022/12/16 01:37:08;;;;;;;;;0.25;0.25;;;;;1.60;79.26;101092.34;5069657;28;11560;-66
2022/12/16 01:39:35;;;;;;;;;1.00;1.00;;;;;1.64;79.35;101097.28;5065722;28;11504;-67
2022/12/16 01:42:02;;;;;;;;;0.00;0.00;;;;;1.67;79.13;101091.72;5068576;28;11514;-67
2022/12/16 01:44:28;;;;;;;;;1.00;1.00;;;;;1.67;78.64;101102.31;5060929;28;11518;-67
2022/12/16 01:46:59;;;;;;;;;0.50;0.00;;;;;1.67;78.55;101110.28;5067895;28;11650;-65
2022/12/16 01:49:46;;;;;;;;;2.00;1.75;;;;;1.61;78.51;101097.53;5054349;28;11589;-67
2022/12/16 01:52:18;;;;;;;;;0.00;0.00;;;;;1.57;78.23;101111.19;5067399;28;11525;-66
2022/12/16 01:55:11;;;;;;;;;0.00;0.00;;;;;1.54;78.38;101108.78;5057237;28;11456;-65
2022/12/16 01:57:47;;;;;;;;;0.25;0.25;;;;;1.55;78.57;101110.47;5065409;28;11455;-67
2022/12/16 02:00:15;;;;;;;;;2.50;2.25;;;;;1.49;78.23;101111.81;5069953;28;12294;-66
2022/12/16 02:02:45;;;;;;;;;1.00;1.00;;;;;1.48;78.07;101113.63;5067781;28;12181;-66
2022/12/16 02:05:21;;;;;;;;;0.00;0.00;;;;;1.49;78.25;101112.66;5070427;28;11620;-66
2022/12/16 02:08:09;;;;;;;;;0.50;0.50;;;;;1.49;77.99;101114.47;5063564;28;11543;-66
2022/12/16 02:10:41;;;;;;;;;1.00;1.00;;;;;1.50;78.04;101116.19;5070750;28;11610;-68
2022/12/16 02:13:17;;;;;;;;;0.00;0.00;;;;;1.53;77.85;101115.06;5066109;28;11537;-68
2022/12/16 02:16:10;;;;;;;;;0.00;0.00;;;;;1.54;77.38;101119.38;5062108;28;11553;-66
2022/12/16 02:18:51;;;;;;;;;3.00;1.00;;;;;1.51;77.54;101112.56;5064295;28;11511;-66
2022/12/16 02:21:45;;;;;;;;;0.00;0.00;;;;;1.52;77.33;101113.38;5071740;28;11512;-66
2022/12/16 02:25:11;;;;;;;;;0.00;0.00;;;;;1.54;77.40;101122.91;5058822;28;11672;-65
2022/12/16 02:27:51;;;;;;;;;0.00;0.00;;;;;1.54;77.54;101135.31;5062355;28;11491;-65
2022/12/16 02:30:46;;;;;;;;;0.00;0.00;;;;;1.53;77.32;101130.97;5050418;28;11595;-66
2022/12/16 02:33:32;;;;;;;;;2.00;0.00;;;;;1.50;77.39;101140.06;5060297;28;11541;-66
2022/12/16 02:36:03;;;;;;;;;0.25;0.25;;;;;1.44;76.52;101141.38;5064641;28;12192;-67
2022/12/16 02:38:39;;;;;;;;;0.50;0.00;;;;;1.40;76.49;101145.28;5069685;28;11641;-65
2022/12/16 02:41:14;;;;;;;;;0.75;0.00;;;;;1.34;76.85;101153.75;5061154;28;11629;-65
2022/12/16 02:44:17;;;;;;;;;0.00;0.00;;;;;1.36;77.32;101148.31;5059858;28;11536;-66
2022/12/16 02:46:54;;;;;;;;;0.50;0.00;;;;;1.38;76.83;101154.34;4962610;28;11710;-66
2022/12/16 02:49:21;;;;;;;;;0.00;0.00;;;;;1.38;76.93;101154.34;5055454;28;11541;-66
2022/12/16 02:51:48;;;;;;;;;0.00;0.00;;;;;1.37;77.01;101158.78;5064892;28;11574;-66
2022/12/16 02:54:17;;;;;;;;;0.00;0.00;;;;;1.38;76.72;101157.00;5058740;28;11662;-66
2022/12/16 02:57:10;;;;;;;;;0.00;0.00;;;;;1.35;76.65;101167.84;5057297;28;11484;-66
2022/12/16 02:59:58;;;;;;;;;0.25;0.00;;;;;1.37;76.63;101171.19;5060970;28;12342;-65
2022/12/16 03:02:44;;;;;;;;;0.50;0.50;;;;;1.40;76.21;101168.31;5060541;28;13044;-67
2022/12/16 03:05:33;;;;;;;;;0.00;0.00;;;;;1.39;76.54;101174.59;5062716;28;11520;-67
2022/12/16 03:08:04;;;;;;;;;0.00;0.00;;;;;1.40;76.33;101177.09;5069998;28;11568;-66
2022/12/16 03:10:37;;;;;;;;;0.00;0.00;;;;;1.43;76.71;101186.63;5070923;28;11488;-66
2022/12/16 03:13:06;;;;;;;;;0.00;0.00;;;;;1.43;76.10;101182.16;5065638;28;11730;-66
2022/12/16 03:15:35;;;;;;;;;0.00;0.00;;;;;1.42;76.07;101191.09;5051772;28;11467;-66
2022/12/16 03:18:05;;;;;;;;;0.00;0.00;;;;;1.40;75.99;101189.53;5055055;28;11525;-66
2022/12/16 03:20:36;;;;;;;;;0.00;0.00;;;;;1.43;76.15;101190.13;5062412;28;11527;-66
2022/12/16 03:23:08;;;;;;;;;0.00;0.00;;;;;1.46;76.03;101197.81;5070603;28;11530;-66
2022/12/16 03:25:40;;;;;;;;;0.25;0.25;;;;;1.47;75.88;101194.19;5058851;28;11547;-67
2022/12/16 03:28:15;;;;;;;;;0.50;0.00;;;;;1.44;75.23;101194.44;5066927;28;11504;-66
2022/12/16 03:30:49;;;;;;;;;2.00;0.00;;;;;1.42;75.37;101192.91;5064912;28;11515;-65
2022/12/16 03:33:28;;;;;;;;;0.75;0.75;;;;;1.40;75.67;101195.66;5068622;28;11517;-67
2022/12/16 03:36:00;;;;;;;;;1.00;1.00;;;;;1.41;75.44;101204.47;5071407;28;11475;-67
2022/12/16 03:38:29;;;;;;;;;0.00;0.00;;;;;1.42;75.59;101199.06;5053316;28;11562;-66
2022/12/16 03:40:58;;;;;;;;;0.00;0.00;;;;;1.46;75.11;101202.28;5064047;28;11504;-65
2022/12/16 03:43:24;;;;;;;;;0.00;0.00;;;;;1.42;74.94;101203.50;5068553;28;11516;-65
2022/12/16 03:45:56;;;;;;;;;0.00;0.00;;;;;1.45;75.12;101205.88;5050427;28;11520;-64
2022/12/16 03:48:25;;;;;;;;;1.25;0.00;;;;;1.50;75.06;101203.72;5057338;28;11506;-65
2022/12/16 03:50:51;;;;;;;;;0.00;0.00;;;;;1.52;74.70;101207.06;5069976;28;11519;-64
2022/12/16 03:53:23;;;;;;;;;1.00;0.00;;;;;1.54;74.76;101210.47;5062640;28;11591;-64
2022/12/16 03:55:49;;;;;;;;;1.00;1.00;;;;;1.49;74.09;101218.78;5054378;28;11496;-64
2022/12/16 03:58:16;;;;;;;;;0.00;0.00;;;;;1.46;74.56;101218.22;5056939;28;11533;-64
2022/12/16 04:00:42;;;;;;;;;0.00;0.00;;;;;1.44;74.55;101222.78;5059065;28;11566;-65
2022/12/16 04:03:09;;;;;;;;;4.00;1.00;;;;;1.44;74.88;101225.44;5066527;28;11559;-64
2022/12/16 04:05:36;;;;;;;;;1.25;1.00;;;;;1.43;74.73;101224.59;5069757;28;11501;-64
2022/12/16 04:08:02;;;;;;;;;3.00;2.25;;;;;1.44;74.44;101217.47;5067635;28;11512;-64
2022/12/16 04:24:19;;;;;;;;;0.50;0.50;;;;;1.38;74.78;101232.09;5063003;28;11515;-65
2022/12/16 04:32:26;;;;;;;;;0.00;0.00;;;;;1.35;74.66;101236.81;5060087;28;11534;-65
